createdAt,value
2022-08-27T00:02:14.122Z,13.10
2022-08-27T00:04:42.648Z,15.73
2022-08-27T00:07:11.363Z,12.03
2022-08-27T00:09:39.874Z,12.10
2022-08-27T00:12:09.762Z,12.93
2022-08-27T00:14:39.944Z,12.37
2022-08-27T00:17:08.431Z,11.67
2022-08-27T00:19:37.106Z,12.77
2022-08-27T00:22:07.681Z,12.47
2022-08-27T00:24:35.790Z,15.03
2022-08-27T00:27:07.426Z,13.90
2022-08-27T00:29:40.478Z,11.53
2022-08-27T00:32:09.200Z,12.20
2022-08-27T00:34:38.228Z,12.33
2022-08-27T00:37:07.741Z,12.90
2022-08-27T00:39:37.190Z,13.10
2022-08-27T00:42:08.535Z,13.20
2022-08-27T00:44:41.172Z,13.10
2022-08-27T00:47:23.970Z,12.73
2022-08-27T00:49:57.047Z,13.03
2022-08-27T00:52:30.788Z,11.90
2022-08-27T00:55:03.810Z,11.37
2022-08-27T00:57:33.629Z,15.50
2022-08-27T01:00:06.669Z,12.43
2022-08-27T01:02:36.045Z,11.27
2022-08-27T01:05:07.225Z,11.90
2022-08-27T01:07:37.679Z,14.03
2022-08-27T01:10:09.910Z,18.37
2022-08-27T01:12:40.034Z,18.43
2022-08-27T01:15:16.964Z,13.87
2022-08-27T01:17:49.720Z,12.97
2022-08-27T01:20:22.055Z,14.83
2022-08-27T01:22:56.766Z,16.13
2022-08-27T01:25:27.044Z,17.57
2022-08-27T01:27:58.699Z,13.10
2022-08-27T01:30:32.887Z,14.50
2022-08-27T01:33:01.238Z,16.43
2022-08-27T01:35:32.172Z,15.40
2022-08-27T01:38:04.389Z,15.93
2022-08-27T01:40:39.632Z,19.07
2022-08-27T01:43:14.951Z,18.07
2022-08-27T01:45:50.246Z,15.70
2022-08-27T01:48:20.022Z,16.00
2022-08-27T01:50:49.636Z,12.03
2022-08-27T01:53:19.817Z,12.40
2022-08-27T01:55:50.036Z,13.53
2022-08-27T01:58:18.850Z,15.10
2022-08-27T02:00:56.110Z,14.27
2022-08-27T02:03:27.922Z,12.27
2022-08-27T02:05:56.971Z,15.80
2022-08-27T02:08:26.672Z,11.90
2022-08-27T02:10:57.270Z,13.80
2022-08-27T02:13:26.121Z,14.57
2022-08-27T02:15:54.645Z,18.43
2022-08-27T02:18:23.718Z,13.87
2022-08-27T02:20:54.658Z,14.27
2022-08-27T02:23:23.513Z,15.40
2022-08-27T02:25:55.498Z,13.40
2022-08-27T02:28:30.363Z,18.07
2022-08-27T02:31:03.737Z,13.33
2022-08-27T02:33:35.180Z,13.60
2022-08-27T02:36:06.393Z,13.10
2022-08-27T02:38:34.707Z,13.40
2022-08-27T02:41:05.579Z,14.13
2022-08-27T02:43:36.665Z,16.13
2022-08-27T02:46:07.084Z,15.90
2022-08-27T02:48:38.907Z,13.97
2022-08-27T02:51:07.249Z,17.10
2022-08-27T02:53:36.625Z,18.73
2022-08-27T02:56:05.674Z,18.10
2022-08-27T02:58:35.190Z,22.77
2022-08-27T03:01:11.373Z,20.57
2022-08-27T03:03:43.231Z,18.00
2022-08-27T03:06:15.179Z,16.87
2022-08-27T03:08:52.256Z,16.57
2022-08-27T03:11:22.528Z,16.30
2022-08-27T03:13:53.094Z,16.07
2022-08-27T03:16:24.016Z,18.03
2022-08-27T03:18:51.629Z,19.03
2022-08-27T03:21:21.715Z,19.53
2022-08-27T03:23:50.217Z,18.53
2022-08-27T03:26:19.468Z,22.27
2022-08-27T03:28:55.202Z,21.47
2022-08-27T03:31:27.741Z,18.47
2022-08-27T03:33:56.912Z,19.70
2022-08-27T03:36:25.180Z,18.50
2022-08-27T03:38:54.094Z,24.20
2022-08-27T03:41:22.409Z,21.07
2022-08-27T03:43:52.959Z,21.43
2022-08-27T03:46:22.928Z,20.77
2022-08-27T03:48:52.175Z,19.53
2022-08-27T03:51:26.016Z,20.10
2022-08-27T03:53:54.815Z,20.83
2022-08-27T03:56:24.179Z,19.87
2022-08-27T03:58:52.778Z,23.17
2022-08-27T04:01:24.126Z,18.17
2022-08-27T04:03:52.868Z,21.17
2022-08-27T04:06:21.290Z,20.13
2022-08-27T04:08:49.673Z,20.07
2022-08-27T04:11:17.946Z,19.10
2022-08-27T04:13:46.034Z,21.80
2022-08-27T04:16:16.159Z,18.77
2022-08-27T04:18:47.514Z,18.80
2022-08-27T04:21:16.655Z,17.03
2022-08-27T04:23:45.704Z,18.07
2022-08-27T04:26:14.815Z,18.47
2022-08-27T04:28:48.717Z,18.77
2022-08-27T04:31:18.759Z,19.40
2022-08-27T04:33:50.875Z,19.63
2022-08-27T04:36:19.997Z,19.77
2022-08-27T04:38:51.023Z,19.50
2022-08-27T04:41:23.223Z,20.03
2022-08-27T04:43:56.252Z,19.17
2022-08-27T04:46:25.488Z,22.90
2022-08-27T04:48:57.241Z,18.93
2022-08-27T04:51:25.744Z,19.83
2022-08-27T04:53:54.587Z,20.20
2022-08-27T04:56:23.142Z,20.27
2022-08-27T04:58:51.576Z,19.80
2022-08-27T05:01:20.036Z,20.63
2022-08-27T05:03:51.246Z,22.43
2022-08-27T05:06:20.655Z,19.80
2022-08-27T05:08:49.343Z,21.83
2022-08-27T05:11:18.424Z,20.57
2022-08-27T05:13:46.792Z,25.17
2022-08-27T05:16:19.180Z,24.33
2022-08-27T05:18:50.857Z,21.07
2022-08-27T05:21:21.584Z,22.23
2022-08-27T05:23:50.021Z,23.43
2022-08-27T05:26:18.651Z,23.63
2022-08-27T05:28:51.239Z,25.53
2022-08-27T05:31:21.349Z,23.80
2022-08-27T05:33:50.528Z,26.67
2022-08-27T05:36:26.570Z,25.43
2022-08-27T05:38:55.262Z,25.87
2022-08-27T05:41:33.631Z,32.70
2022-08-27T05:44:30.240Z,27.43
2022-08-27T05:46:57.825Z,28.37
2022-08-27T05:49:27.288Z,27.27
2022-08-27T05:51:59.818Z,29.67
2022-08-27T05:54:28.773Z,33.80
2022-08-27T05:56:56.877Z,34.63
2022-08-27T05:59:43.685Z,36.67
2022-08-27T06:02:12.144Z,35.47
2022-08-27T06:04:40.904Z,34.73
2022-08-27T06:07:10.985Z,34.37
2022-08-27T06:09:39.210Z,31.20
2022-08-27T06:12:08.759Z,27.17
2022-08-27T06:14:37.066Z,21.00
2022-08-27T06:17:06.294Z,13.57
2022-08-27T06:19:36.575Z,12.87
2022-08-27T06:22:09.961Z,13.77
2022-08-27T06:24:41.581Z,8.37
2022-08-27T06:27:10.714Z,8.87
2022-08-27T06:29:38.849Z,8.43
2022-08-27T06:32:07.248Z,7.10
2022-08-27T06:34:36.900Z,7.60
2022-08-27T06:37:07.776Z,6.07
2022-08-27T06:39:37.535Z,5.47
2022-08-27T06:42:08.371Z,4.63
2022-08-27T06:44:37.048Z,5.07
2022-08-27T06:47:05.922Z,5.83
2022-08-27T06:49:34.669Z,5.60
2022-08-27T06:52:09.308Z,6.93
2022-08-27T06:54:37.443Z,6.37
2022-08-27T06:57:08.209Z,11.87
2022-08-27T06:59:41.222Z,14.83
2022-08-27T07:02:09.981Z,13.50
2022-08-27T07:04:38.719Z,24.43
2022-08-27T07:07:08.736Z,17.97
2022-08-27T07:09:38.463Z,24.27
2022-08-27T07:12:11.705Z,23.73
2022-08-27T07:14:42.427Z,23.70
2022-08-27T07:17:16.375Z,26.40
2022-08-27T07:19:47.001Z,26.43
2022-08-27T07:22:16.982Z,27.37
2022-08-27T07:24:46.931Z,25.80
2022-08-27T07:27:17.991Z,28.20
2022-08-27T07:29:50.769Z,26.83
2022-08-27T07:32:19.069Z,30.37
2022-08-27T07:34:52.991Z,28.90
2022-08-27T07:37:22.668Z,28.77
2022-08-27T07:39:55.656Z,28.63
2022-08-27T07:42:47.141Z,29.17
2022-08-27T07:45:16.729Z,25.83
2022-08-27T07:47:46.790Z,23.87
2022-08-27T07:50:15.408Z,24.83
2022-08-27T07:52:44.882Z,23.27
2022-08-27T07:55:13.038Z,23.37
2022-08-27T07:57:44.887Z,22.53
2022-08-27T08:00:13.575Z,23.10
2022-08-27T08:02:42.236Z,19.97
2022-08-27T08:05:12.632Z,18.83
2022-08-27T08:07:43.957Z,18.57
2022-08-27T08:10:12.852Z,18.67
2022-08-27T08:12:44.692Z,16.80
2022-08-27T08:15:13.314Z,16.40
2022-08-27T08:17:45.579Z,17.47
2022-08-27T08:20:41.558Z,14.47
2022-08-27T08:23:13.936Z,12.33
2022-08-27T08:25:42.456Z,11.20
2022-08-27T08:28:12.771Z,8.27
2022-08-27T08:30:43.717Z,7.80
2022-08-27T08:33:17.154Z,7.90
2022-08-27T08:35:46.537Z,6.83
2022-08-27T08:38:14.784Z,5.70
2022-08-27T08:40:45.644Z,6.40
2022-08-27T08:43:24.971Z,5.00
2022-08-27T08:45:54.145Z,4.40
2022-08-27T08:48:23.760Z,3.57
2022-08-27T08:50:54.655Z,3.70
2022-08-27T08:53:35.789Z,3.03
2022-08-27T08:56:05.155Z,3.10
2022-08-27T08:58:40.858Z,6.50
2022-08-27T09:01:10.263Z,3.40
2022-08-27T09:03:42.604Z,3.70
2022-08-27T09:06:15.415Z,2.93
2022-08-27T09:08:44.254Z,4.17
2022-08-27T09:11:16.846Z,2.67
2022-08-27T09:13:49.447Z,2.70
2022-08-27T09:16:18.969Z,2.80
2022-08-27T09:18:51.357Z,2.67
2022-08-27T09:21:30.638Z,3.10
2022-08-27T09:24:07.407Z,4.10
2022-08-27T09:26:40.375Z,2.10
2022-08-27T09:29:19.997Z,2.10
2022-08-27T09:31:54.768Z,3.33
2022-08-27T09:34:23.640Z,2.03
2022-08-27T09:37:02.820Z,2.70
2022-08-27T09:39:37.206Z,1.70
2022-08-27T09:42:07.398Z,1.50
2022-08-27T09:44:51.518Z,1.70
2022-08-27T09:47:22.416Z,3.13
2022-08-27T09:49:50.866Z,1.57
2022-08-27T09:52:32.501Z,1.67
2022-08-27T09:55:06.486Z,1.63
2022-08-27T09:57:37.454Z,1.37
2022-08-27T10:00:15.618Z,1.63
2022-08-27T10:02:51.583Z,1.57
2022-08-27T10:05:25.582Z,1.93
2022-08-27T10:07:58.463Z,1.87
2022-08-27T10:10:37.893Z,2.90
2022-08-27T10:13:12.832Z,1.60
2022-08-27T10:15:49.533Z,1.40
2022-08-27T10:18:22.245Z,1.70
2022-08-27T10:20:55.704Z,1.80
2022-08-27T10:23:28.470Z,1.43
2022-08-27T10:26:00.475Z,1.60
2022-08-27T10:28:36.908Z,2.00
2022-08-27T10:31:12.599Z,1.70
2022-08-27T10:33:44.671Z,2.00
2022-08-27T10:36:20.363Z,2.07
2022-08-27T10:38:51.299Z,2.33
2022-08-27T10:41:26.162Z,2.70
2022-08-27T10:44:08.355Z,2.80
2022-08-27T10:46:50.523Z,2.60
2022-08-27T10:49:23.774Z,2.90
2022-08-27T10:51:58.917Z,4.73
2022-08-27T10:54:29.343Z,2.80
2022-08-27T10:57:22.875Z,3.37
2022-08-27T10:59:49.806Z,3.83
2022-08-27T11:02:24.571Z,3.97
2022-08-27T11:04:54.881Z,4.27
2022-08-27T11:07:26.834Z,4.10
2022-08-27T11:09:57.489Z,5.00
2022-08-27T11:12:31.266Z,4.77
2022-08-27T11:15:01.880Z,4.17
2022-08-27T11:17:35.389Z,6.47
2022-08-27T11:20:08.753Z,4.93
2022-08-27T11:22:42.777Z,5.00
2022-08-27T11:25:18.683Z,5.13
2022-08-27T11:27:48.658Z,5.20
2022-08-27T11:30:21.872Z,5.10
2022-08-27T11:33:06.626Z,5.03
2022-08-27T11:35:51.102Z,4.93
2022-08-27T11:38:29.243Z,5.50
2022-08-27T11:41:26.520Z,6.07
2022-08-27T11:43:59.021Z,7.30
2022-08-27T11:46:29.949Z,8.80
2022-08-27T11:49:01.308Z,8.57
2022-08-27T11:51:35.100Z,9.27
2022-08-27T11:54:04.289Z,8.30
2022-08-27T11:56:43.570Z,9.13
2022-08-27T11:59:37.572Z,8.30
2022-08-27T12:02:19.835Z,7.80
2022-08-27T12:04:56.549Z,7.70
2022-08-27T12:07:34.438Z,8.13
2022-08-27T12:10:29.656Z,8.67
2022-08-27T12:13:03.402Z,8.43
2022-08-27T12:15:53.876Z,9.83
2022-08-27T12:18:37.346Z,8.17
2022-08-27T12:21:12.417Z,7.97
2022-08-27T12:23:56.181Z,7.23
2022-08-27T12:26:33.491Z,7.73
2022-08-27T12:29:27.689Z,8.43
2022-08-27T12:32:01.794Z,8.47
2022-08-27T12:34:31.140Z,9.80
2022-08-27T12:37:07.405Z,10.50
2022-08-27T12:39:36.028Z,11.83
2022-08-27T12:42:05.515Z,10.80
2022-08-27T12:44:36.680Z,11.60
2022-08-27T12:47:08.111Z,14.07
2022-08-27T12:49:42.960Z,11.80
2022-08-27T12:52:30.863Z,10.67
2022-08-27T12:55:06.832Z,11.10
2022-08-27T12:57:40.987Z,13.23
2022-08-27T13:00:15.281Z,14.63
2022-08-27T13:02:56.565Z,13.77
2022-08-27T13:05:25.237Z,13.50
2022-08-27T13:07:57.521Z,14.20
2022-08-27T13:10:31.792Z,15.23
2022-08-27T13:13:08.209Z,18.20
2022-08-27T13:15:38.391Z,14.20
2022-08-27T13:18:07.877Z,13.80
2022-08-27T13:20:38.898Z,13.77
2022-08-27T13:23:09.783Z,15.67
2022-08-27T13:25:40.784Z,13.10
2022-08-27T13:28:12.644Z,15.20
2022-08-27T13:30:44.043Z,16.03
2022-08-27T13:33:14.716Z,14.93
2022-08-27T13:35:45.663Z,15.63
2022-08-27T13:38:19.595Z,15.63
2022-08-27T13:40:54.343Z,19.00
2022-08-27T13:43:31.094Z,11.30
2022-08-27T13:46:02.385Z,9.23
2022-08-27T13:48:31.844Z,8.47
2022-08-27T13:51:00.263Z,10.40
2022-08-27T13:53:49.065Z,7.63
2022-08-27T13:56:28.071Z,5.23
2022-08-27T13:58:56.596Z,8.37
2022-08-27T14:01:27.883Z,9.77
2022-08-27T14:04:02.188Z,6.07
2022-08-27T14:06:35.788Z,8.07
2022-08-27T14:09:27.845Z,7.27
2022-08-27T14:12:02.853Z,6.93
2022-08-27T14:14:39.050Z,8.20
2022-08-27T14:17:08.818Z,8.27
2022-08-27T14:19:40.082Z,8.80
2022-08-27T14:22:09.120Z,10.37
2022-08-27T14:24:40.140Z,10.30
2022-08-27T14:27:11.244Z,10.27
2022-08-27T14:29:40.152Z,10.57
2022-08-27T14:32:09.059Z,15.93
2022-08-27T14:34:39.386Z,12.77
2022-08-27T14:37:10.588Z,12.50
2022-08-27T14:39:40.668Z,13.10
2022-08-27T14:42:11.572Z,13.93
2022-08-27T14:44:40.090Z,14.17
2022-08-27T14:47:09.405Z,12.73
2022-08-27T14:49:41.295Z,12.00
2022-08-27T14:52:10.918Z,12.93
2022-08-27T14:54:40.644Z,12.17
2022-08-27T14:57:08.996Z,12.90
2022-08-27T14:59:37.525Z,15.73
2022-08-27T15:02:07.665Z,12.97
2022-08-27T15:04:35.816Z,13.40
2022-08-27T15:07:05.190Z,14.47
2022-08-27T15:09:34.723Z,15.67
2022-08-27T15:12:05.369Z,16.00
2022-08-27T15:14:34.851Z,18.83
2022-08-27T15:17:03.271Z,17.27
2022-08-27T15:19:50.333Z,15.97
2022-08-27T15:22:19.517Z,17.17
2022-08-27T15:24:49.827Z,17.50
2022-08-27T15:27:19.839Z,15.27
2022-08-27T15:29:50.279Z,18.33
2022-08-27T15:32:22.830Z,16.90
2022-08-27T15:34:57.064Z,17.10
2022-08-27T15:37:25.226Z,21.33
2022-08-27T15:39:54.070Z,18.17
2022-08-27T15:42:23.686Z,18.37
2022-08-27T15:44:53.183Z,18.23
2022-08-27T15:47:21.758Z,16.57
2022-08-27T15:49:49.959Z,17.83
2022-08-27T15:52:19.305Z,19.60
2022-08-27T15:54:48.982Z,18.37
2022-08-27T15:57:17.141Z,19.97
2022-08-27T15:59:46.836Z,20.17
2022-08-27T16:02:16.957Z,18.37
2022-08-27T16:04:49.275Z,19.87
2022-08-27T16:07:17.825Z,18.40
2022-08-27T16:09:49.607Z,19.73
2022-08-27T16:12:26.923Z,21.50
2022-08-27T16:14:58.280Z,18.63
2022-08-27T16:17:28.081Z,19.53
2022-08-27T16:19:56.798Z,20.37
2022-08-27T16:22:25.232Z,22.80
2022-08-27T16:24:53.492Z,21.10
2022-08-27T16:27:22.060Z,18.90
2022-08-27T16:29:50.980Z,25.03
2022-08-27T16:32:20.703Z,23.90
2022-08-27T16:34:55.411Z,19.43
2022-08-27T16:37:24.516Z,17.27
2022-08-27T16:39:53.434Z,20.00
2022-08-27T16:42:21.674Z,20.40
2022-08-27T16:44:50.441Z,20.33
2022-08-27T16:47:20.269Z,20.70
2022-08-27T16:50:06.497Z,23.80
2022-08-27T16:52:37.311Z,22.43
2022-08-27T16:55:07.922Z,20.87
2022-08-27T16:57:39.086Z,18.00
2022-08-27T17:00:11.978Z,19.90
2022-08-27T17:02:41.982Z,22.00
2022-08-27T17:05:32.982Z,22.37
2022-08-27T17:08:00.234Z,17.63
2022-08-27T17:10:35.020Z,18.37
2022-08-27T17:13:05.697Z,19.53
2022-08-27T17:15:35.004Z,17.97
2022-08-27T17:18:06.121Z,20.30
2022-08-27T17:20:34.885Z,20.27
2022-08-27T17:23:03.282Z,15.70
2022-08-27T17:25:32.165Z,22.83
2022-08-27T17:28:00.718Z,16.17
2022-08-27T17:30:31.790Z,20.60
2022-08-27T17:32:59.942Z,19.63
2022-08-27T17:35:29.979Z,21.73
2022-08-27T17:37:58.063Z,20.13
2022-08-27T17:40:29.596Z,18.27
2022-08-27T17:42:58.594Z,20.77
2022-08-27T17:45:27.059Z,18.63
2022-08-27T17:47:55.391Z,15.50
2022-08-27T17:50:24.722Z,17.43
2022-08-27T17:52:54.767Z,18.63
2022-08-27T17:55:24.137Z,18.60
2022-08-27T17:57:53.128Z,15.93
2022-08-27T18:00:21.878Z,19.20
2022-08-27T18:02:50.878Z,19.30
2022-08-27T18:05:20.680Z,16.37
2022-08-27T18:07:49.928Z,18.43
2022-08-27T18:10:20.715Z,17.93
2022-08-27T18:12:50.928Z,16.80
2022-08-27T18:15:22.920Z,17.23
2022-08-27T18:17:53.471Z,20.27
2022-08-27T18:20:22.339Z,17.43
2022-08-27T18:22:51.391Z,17.40
2022-08-27T18:25:24.534Z,21.60
2022-08-27T18:27:55.978Z,19.40
2022-08-27T18:30:24.411Z,16.90
2022-08-27T18:32:52.974Z,20.70
2022-08-27T18:35:24.639Z,19.53
2022-08-27T18:37:52.939Z,15.30
2022-08-27T18:40:23.682Z,18.73
2022-08-27T18:42:52.772Z,18.57
2022-08-27T18:45:25.835Z,23.67
2022-08-27T18:47:56.128Z,17.23
2022-08-27T18:50:24.419Z,20.53
2022-08-27T18:52:53.508Z,19.80
2022-08-27T18:55:24.839Z,18.10
2022-08-27T18:57:53.033Z,21.97
2022-08-27T19:00:21.817Z,23.63
2022-08-27T19:02:52.574Z,19.53
2022-08-27T19:05:23.233Z,20.40
2022-08-27T19:07:51.575Z,21.40
2022-08-27T19:10:22.119Z,18.77
2022-08-27T19:12:52.696Z,18.73
2022-08-27T19:15:21.204Z,18.70
2022-08-27T19:17:50.973Z,17.67
2022-08-27T19:20:19.829Z,20.83
2022-08-27T19:22:48.115Z,19.27
2022-08-27T19:25:16.436Z,19.93
2022-08-27T19:27:45.048Z,20.83
2022-08-27T19:30:15.590Z,22.07
2022-08-27T19:32:44.090Z,22.73
2022-08-27T19:35:12.568Z,20.53
2022-08-27T19:37:48.006Z,26.83
2022-08-27T19:40:22.909Z,25.13
2022-08-27T19:42:51.146Z,27.07
2022-08-27T19:45:23.114Z,22.00
2022-08-27T19:47:53.387Z,22.43
2022-08-27T19:50:22.122Z,22.63
2022-08-27T19:52:52.324Z,27.07
2022-08-27T19:55:22.068Z,25.13
2022-08-27T19:57:50.756Z,28.27
2022-08-27T20:00:22.809Z,24.57
2022-08-27T20:02:53.680Z,22.33
2022-08-27T20:05:22.864Z,26.53
2022-08-27T20:07:55.544Z,23.70
2022-08-27T20:10:25.777Z,25.03
2022-08-27T20:13:00.792Z,22.47
2022-08-27T20:15:30.598Z,26.43
2022-08-27T20:18:00.285Z,24.23
2022-08-27T20:20:29.716Z,23.57
2022-08-27T20:22:59.243Z,22.23
2022-08-27T20:25:27.667Z,24.33
2022-08-27T20:27:57.951Z,20.00
2022-08-27T20:30:29.155Z,22.60
2022-08-27T20:33:00.103Z,26.33
2022-08-27T20:35:28.971Z,23.70
2022-08-27T20:37:58.257Z,24.83
2022-08-27T20:40:27.799Z,23.93
2022-08-27T20:42:56.341Z,25.37
2022-08-27T20:45:30.215Z,18.80
2022-08-27T20:48:04.346Z,24.13
2022-08-27T20:50:32.525Z,24.40
2022-08-27T20:53:00.690Z,21.63
2022-08-27T20:55:28.824Z,26.60
2022-08-27T20:58:14.469Z,22.60
2022-08-27T21:00:43.301Z,21.70
2022-08-27T21:03:14.856Z,18.83
2022-08-27T21:05:47.111Z,18.07
2022-08-27T21:08:16.970Z,21.03
2022-08-27T21:10:45.958Z,19.47
2022-08-27T21:13:14.111Z,25.23
2022-08-27T21:15:42.706Z,18.83
2022-08-27T21:18:12.938Z,21.70
2022-08-27T21:20:41.463Z,23.90
2022-08-27T21:23:09.996Z,23.53
2022-08-27T21:25:39.560Z,23.43
2022-08-27T21:28:10.262Z,25.93
2022-08-27T21:30:38.647Z,27.57
2022-08-27T21:33:06.723Z,29.70
2022-08-27T21:35:36.695Z,22.03
2022-08-27T21:38:05.882Z,27.57
2022-08-27T21:40:34.266Z,23.30
2022-08-27T21:43:02.975Z,29.30
2022-08-27T21:45:32.225Z,22.60
2022-08-27T21:48:05.069Z,22.70
2022-08-27T21:50:33.533Z,25.47
2022-08-27T21:53:06.714Z,25.13
2022-08-27T21:55:35.458Z,27.33
2022-08-27T21:58:07.184Z,23.87
2022-08-27T22:00:40.959Z,31.03
2022-08-27T22:03:22.680Z,30.90
2022-08-27T22:05:55.279Z,21.43
2022-08-27T22:08:24.959Z,24.13
2022-08-27T22:10:55.176Z,25.83
2022-08-27T22:13:24.870Z,26.67
2022-08-27T22:15:53.852Z,23.13
2022-08-27T22:18:23.885Z,26.80
2022-08-27T22:20:52.292Z,29.63
2022-08-27T22:23:20.873Z,22.83
2022-08-27T22:25:55.371Z,26.43
2022-08-27T22:28:25.874Z,24.07
2022-08-27T22:30:54.915Z,26.30
2022-08-27T22:33:23.646Z,30.73
2022-08-27T22:35:53.071Z,30.17
2022-08-27T22:38:25.627Z,23.73
2022-08-27T22:40:58.952Z,22.60
2022-08-27T22:43:29.566Z,28.33
2022-08-27T22:45:58.263Z,26.00
2022-08-27T22:48:34.281Z,23.07
2022-08-27T22:51:03.831Z,24.77
2022-08-27T22:53:32.260Z,24.93
2022-08-27T22:56:01.783Z,28.60
2022-08-27T22:58:41.137Z,24.33
2022-08-27T23:01:15.107Z,21.20
2022-08-27T23:03:43.949Z,23.60
2022-08-27T23:06:12.258Z,28.90
2022-08-27T23:08:41.280Z,22.97
2022-08-27T23:11:12.449Z,21.13
2022-08-27T23:13:41.138Z,21.20
2022-08-27T23:16:12.319Z,19.83
2022-08-27T23:18:40.642Z,22.80
2022-08-27T23:21:09.516Z,23.23
2022-08-27T23:23:38.850Z,18.47
2022-08-27T23:26:25.103Z,24.53
2022-08-27T23:28:57.344Z,22.23
2022-08-27T23:31:26.033Z,27.83
2022-08-27T23:33:57.020Z,20.57
2022-08-27T23:36:25.440Z,25.83
2022-08-27T23:38:53.749Z,26.17
2022-08-27T23:41:21.733Z,26.33
2022-08-27T23:43:49.788Z,28.87
2022-08-27T23:46:19.189Z,21.17
2022-08-27T23:48:47.602Z,27.00
2022-08-27T23:51:19.364Z,25.13
2022-08-27T23:53:47.994Z,22.23
2022-08-27T23:56:18.684Z,22.63
2022-08-27T23:58:48.763Z,21.07
